sensor_id;sensor_type;location;lat;lon;timestamp;P1;P2;P0
55304;PMS7003;65692;51.378;19.824;2024-02-16T07:18:30;71.25;57.00;37.00
55304;PMS7003;65692;51.378;19.824;2024-02-16T07:20:57;71.50;56.25;36.25
55304;PMS7003;65692;51.378;19.824;2024-02-16T07:23:25;74.25;56.75;37.25
55304;PMS7003;65692;51.378;19.824;2024-02-16T07:25:52;75.75;57.00;39.00
55304;PMS7003;65692;51.378;19.824;2024-02-16T07:28:22;79.00;59.00;37.75
55304;PMS7003;65692;51.378;19.824;2024-02-16T07:30:49;74.50;57.00;36.50
55304;PMS7003;65692;51.378;19.824;2024-02-16T07:33:16;68.25;49.75;35.00
55304;PMS7003;65692;51.378;19.824;2024-02-16T07:35:43;76.25;56.75;37.50
55304;PMS7003;65692;51.378;19.824;2024-02-16T07:38:10;73.00;56.75;38.25
55304;PMS7003;65692;51.378;19.824;2024-02-16T07:40:37;75.75;60.00;39.75
55304;PMS7003;65692;51.378;19.824;2024-02-16T07:43:06;70.50;53.75;35.50
55304;PMS7003;65692;51.378;19.824;2024-02-16T07:45:32;72.25;55.25;35.00
55304;PMS7003;65692;51.378;19.824;2024-02-16T07:47:59;76.75;57.25;38.00
55304;PMS7003;65692;51.378;19.824;2024-02-16T07:50:31;71.75;55.75;36.00
55304;PMS7003;65692;51.378;19.824;2024-02-16T07:52:58;71.75;56.25;36.00
55304;PMS7003;65692;51.378;19.824;2024-02-16T07:55:24;76.25;56.00;37.00
55304;PMS7003;65692;51.378;19.824;2024-02-16T07:57:53;73.75;52.75;34.50
55304;PMS7003;65692;51.378;19.824;2024-02-16T08:00:20;54.50;45.00;30.75
55304;PMS7003;65692;51.378;19.824;2024-02-16T08:02:47;73.25;53.75;37.00
55304;PMS7003;65692;51.378;19.824;2024-02-16T08:05:13;69.50;55.50;37.25
55304;PMS7003;65692;51.378;19.824;2024-02-16T08:07:40;72.00;56.50;37.00
55304;PMS7003;65692;51.378;19.824;2024-02-16T08:10:09;71.25;53.50;36.00
55304;PMS7003;65692;51.378;19.824;2024-02-16T08:12:36;75.75;54.00;33.75
55304;PMS7003;65692;51.378;19.824;2024-02-16T08:15:03;69.75;53.00;35.00
55304;PMS7003;65692;51.378;19.824;2024-02-16T08:17:30;60.00;48.00;32.75
55304;PMS7003;65692;51.378;19.824;2024-02-16T08:19:57;67.50;51.00;34.00
55304;PMS7003;65692;51.378;19.824;2024-02-16T08:22:24;20.50;9.25;0.00
55304;PMS7003;65692;51.378;19.824;2024-02-16T08:24:51;65.75;53.50;36.25
55304;PMS7003;65692;51.378;19.824;2024-02-16T08:27:18;68.00;52.75;35.00
55304;PMS7003;65692;51.378;19.824;2024-02-16T08:29:45;72.50;54.00;33.75
55304;PMS7003;65692;51.378;19.824;2024-02-16T08:32:12;67.00;54.75;36.75
55304;PMS7003;65692;51.378;19.824;2024-02-16T08:34:38;67.25;49.50;33.25
55304;PMS7003;65692;51.378;19.824;2024-02-16T08:37:06;71.25;55.25;36.75
55304;PMS7003;65692;51.378;19.824;2024-02-16T08:39:33;66.75;51.50;34.75
55304;PMS7003;65692;51.378;19.824;2024-02-16T08:42:01;63.50;49.25;34.25
55304;PMS7003;65692;51.378;19.824;2024-02-16T08:44:28;66.50;51.25;34.25
55304;PMS7003;65692;51.378;19.824;2024-02-16T08:46:54;70.25;52.00;35.50
55304;PMS7003;65692;51.378;19.824;2024-02-16T08:49:21;72.50;53.25;35.00
55304;PMS7003;65692;51.378;19.824;2024-02-16T08:51:48;74.50;54.00;36.00
55304;PMS7003;65692;51.378;19.824;2024-02-16T08:54:14;66.75;52.50;33.00
55304;PMS7003;65692;51.378;19.824;2024-02-16T08:56:44;67.75;51.50;33.00
55304;PMS7003;65692;51.378;19.824;2024-02-16T08:59:11;70.25;53.50;35.00
55304;PMS7003;65692;51.378;19.824;2024-02-16T09:01:38;67.25;51.25;34.00
55304;PMS7003;65692;51.378;19.824;2024-02-16T09:04:05;62.00;50.00;34.25
55304;PMS7003;65692;51.378;19.824;2024-02-16T09:06:32;56.33;46.67;33.00
55304;PMS7003;65692;51.378;19.824;2024-02-16T09:09:01;57.75;45.75;30.75
55304;PMS7003;65692;51.378;19.824;2024-02-16T09:11:28;56.67;44.67;27.33
55304;PMS7003;65692;51.378;19.824;2024-02-16T09:13:55;57.50;47.00;31.75
55304;PMS7003;65692;51.378;19.824;2024-02-16T09:16:21;58.67;47.00;30.00
55304;PMS7003;65692;51.378;19.824;2024-02-16T09:18:51;55.67;43.00;29.00
55304;PMS7003;65692;51.378;19.824;2024-02-16T09:21:17;49.33;41.67;28.67
55304;PMS7003;65692;51.378;19.824;2024-02-16T09:23:44;55.67;43.00;29.33
55304;PMS7003;65692;51.378;19.824;2024-02-16T09:26:11;58.67;45.33;31.00
55304;PMS7003;65692;51.378;19.824;2024-02-16T09:28:39;52.00;39.00;27.67
55304;PMS7003;65692;51.378;19.824;2024-02-16T09:31:07;57.33;45.00;28.33
55304;PMS7003;65692;51.378;19.824;2024-02-16T09:33:34;49.67;41.67;28.67
55304;PMS7003;65692;51.378;19.824;2024-02-16T09:36:04;53.67;42.00;28.33
55304;PMS7003;65692;51.378;19.824;2024-02-16T09:38:31;51.00;39.00;26.67
55304;PMS7003;65692;51.378;19.824;2024-02-16T09:40:58;45.75;37.00;26.50
55304;PMS7003;65692;51.378;19.824;2024-02-16T09:43:25;45.00;37.50;25.25
55304;PMS7003;65692;51.378;19.824;2024-02-16T09:45:56;50.50;38.75;25.25
55304;PMS7003;65692;51.378;19.824;2024-02-16T09:48:22;43.50;37.00;24.50
55304;PMS7003;65692;51.378;19.824;2024-02-16T09:50:50;44.25;38.25;25.75
55304;PMS7003;65692;51.378;19.824;2024-02-16T09:53:17;47.00;36.00;25.25
55304;PMS7003;65692;51.378;19.824;2024-02-16T09:55:46;51.00;40.50;26.00
55304;PMS7003;65692;51.378;19.824;2024-02-16T09:58:13;41.25;33.25;22.25
55304;PMS7003;65692;51.378;19.824;2024-02-16T10:00:53;46.75;36.25;24.00
55304;PMS7003;65692;51.378;19.824;2024-02-16T10:03:21;17.75;13.50;5.00
55304;PMS7003;65692;51.378;19.824;2024-02-16T10:05:48;43.00;33.50;23.00
55304;PMS7003;65692;51.378;19.824;2024-02-16T10:08:15;36.50;29.25;19.00
55304;PMS7003;65692;51.378;19.824;2024-02-16T10:10:41;28.50;26.75;19.00
55304;PMS7003;65692;51.378;19.824;2024-02-16T10:13:08;30.75;28.50;22.25
55304;PMS7003;65692;51.378;19.824;2024-02-16T10:15:35;31.00;25.75;20.25
55304;PMS7003;65692;51.378;19.824;2024-02-16T10:18:02;31.00;29.50;20.50
55304;PMS7003;65692;51.378;19.824;2024-02-16T10:20:30;28.25;24.75;19.00
55304;PMS7003;65692;51.378;19.824;2024-02-16T10:23:05;31.50;30.75;22.00
55304;PMS7003;65692;51.378;19.824;2024-02-16T10:25:33;24.25;21.50;16.00
55304;PMS7003;65692;51.378;19.824;2024-02-16T10:28:03;32.00;26.75;19.25
55304;PMS7003;65692;51.378;19.824;2024-02-16T10:30:30;23.00;23.00;16.25
55304;PMS7003;65692;51.378;19.824;2024-02-16T10:32:59;23.75;20.50;15.00
55304;PMS7003;65692;51.378;19.824;2024-02-16T10:35:26;26.75;22.50;16.50
55304;PMS7003;65692;51.378;19.824;2024-02-16T10:37:55;21.25;19.00;10.75
55304;PMS7003;65692;51.378;19.824;2024-02-16T10:40:23;26.75;21.25;14.50
55304;PMS7003;65692;51.378;19.824;2024-02-16T10:42:50;19.25;16.25;12.00
55304;PMS7003;65692;51.378;19.824;2024-02-16T10:45:17;17.25;16.00;12.25
55304;PMS7003;65692;51.378;19.824;2024-02-16T10:47:45;19.25;15.00;12.75
55304;PMS7003;65692;51.378;19.824;2024-02-16T10:50:11;19.75;16.00;13.00
55304;PMS7003;65692;51.378;19.824;2024-02-16T10:52:39;21.25;16.75;12.75
55304;PMS7003;65692;51.378;19.824;2024-02-16T10:55:07;21.75;19.00;14.75
55304;PMS7003;65692;51.378;19.824;2024-02-16T10:57:35;15.00;15.00;10.50
55304;PMS7003;65692;51.378;19.824;2024-02-16T11:00:07;17.75;17.75;12.75
55304;PMS7003;65692;51.378;19.824;2024-02-16T11:02:50;22.00;15.25;11.50
55304;PMS7003;65692;51.378;19.824;2024-02-16T11:05:18;15.75;15.00;12.00
55304;PMS7003;65692;51.378;19.824;2024-02-16T11:07:44;10.75;10.75;7.50
55304;PMS7003;65692;51.378;19.824;2024-02-16T11:10:12;13.50;12.50;9.75
55304;PMS7003;65692;51.378;19.824;2024-02-16T11:12:38;16.00;12.25;10.75
55304;PMS7003;65692;51.378;19.824;2024-02-16T11:15:12;20.75;16.75;12.00
55304;PMS7003;65692;51.378;19.824;2024-02-16T11:17:39;16.25;13.75;11.50
55304;PMS7003;65692;51.378;19.824;2024-02-16T11:20:10;14.25;12.00;9.00
55304;PMS7003;65692;51.378;19.824;2024-02-16T11:22:39;13.75;12.50;10.00
55304;PMS7003;65692;51.378;19.824;2024-02-16T11:25:06;16.75;15.00;11.75
55304;PMS7003;65692;51.378;19.824;2024-02-16T11:27:32;18.00;16.50;13.00
55304;PMS7003;65692;51.378;19.824;2024-02-16T11:30:01;17.25;13.75;11.25
55304;PMS7003;65692;51.378;19.824;2024-02-16T11:32:31;13.25;13.25;9.50
55304;PMS7003;65692;51.378;19.824;2024-02-16T11:35:04;14.25;12.00;9.25
55304;PMS7003;65692;51.378;19.824;2024-02-16T11:37:31;15.50;14.00;11.25
55304;PMS7003;65692;51.378;19.824;2024-02-16T11:39:57;12.00;9.00;7.75
55304;PMS7003;65692;51.378;19.824;2024-02-16T11:42:24;12.00;12.00;9.75
55304;PMS7003;65692;51.378;19.824;2024-02-16T11:44:54;12.50;11.25;8.75
55304;PMS7003;65692;51.378;19.824;2024-02-16T11:47:23;11.00;8.50;7.00
55304;PMS7003;65692;51.378;19.824;2024-02-16T11:50:02;12.50;11.25;7.75
55304;PMS7003;65692;51.378;19.824;2024-02-16T11:52:29;10.75;10.50;9.00
55304;PMS7003;65692;51.378;19.824;2024-02-16T11:54:55;12.50;10.50;8.00
55304;PMS7003;65692;51.378;19.824;2024-02-16T11:57:26;16.75;11.25;8.25
55304;PMS7003;65692;51.378;19.824;2024-02-16T11:59:54;13.50;11.50;9.50
55304;PMS7003;65692;51.378;19.824;2024-02-16T12:02:21;14.00;9.25;8.00
55304;PMS7003;65692;51.378;19.824;2024-02-16T12:04:48;19.25;13.25;10.00
55304;PMS7003;65692;51.378;19.824;2024-02-16T12:07:28;16.00;13.75;9.00
55304;PMS7003;65692;51.378;19.824;2024-02-16T12:09:58;13.25;11.50;8.50
55304;PMS7003;65692;51.378;19.824;2024-02-16T12:12:25;14.75;13.25;10.25
55304;PMS7003;65692;51.378;19.824;2024-02-16T12:14:52;16.75;13.00;10.00
55304;PMS7003;65692;51.378;19.824;2024-02-16T12:17:19;16.50;14.25;9.25
55304;PMS7003;65692;51.378;19.824;2024-02-16T12:19:46;15.25;13.00;10.00
55304;PMS7003;65692;51.378;19.824;2024-02-16T12:22:19;17.50;13.00;11.00
55304;PMS7003;65692;51.378;19.824;2024-02-16T12:24:46;14.75;11.75;9.25
55304;PMS7003;65692;51.378;19.824;2024-02-16T12:27:13;14.75;12.25;10.50
55304;PMS7003;65692;51.378;19.824;2024-02-16T12:29:41;15.25;13.00;9.75
55304;PMS7003;65692;51.378;19.824;2024-02-16T12:32:08;13.25;12.00;8.25
55304;PMS7003;65692;51.378;19.824;2024-02-16T12:34:37;17.00;13.75;9.75
55304;PMS7003;65692;51.378;19.824;2024-02-16T12:37:04;9.00;9.00;7.25
55304;PMS7003;65692;51.378;19.824;2024-02-16T12:39:34;9.75;9.75;7.00
55304;PMS7003;65692;51.378;19.824;2024-02-16T12:42:01;9.75;9.75;7.25
55304;PMS7003;65692;51.378;19.824;2024-02-16T12:44:28;16.25;12.00;9.75
55304;PMS7003;65692;51.378;19.824;2024-02-16T12:46:55;10.75;10.25;8.75
55304;PMS7003;65692;51.378;19.824;2024-02-16T12:49:21;12.50;9.75;7.25
55304;PMS7003;65692;51.378;19.824;2024-02-16T12:51:49;11.00;9.50;5.75
55304;PMS7003;65692;51.378;19.824;2024-02-16T12:54:16;13.25;11.25;8.00
55304;PMS7003;65692;51.378;19.824;2024-02-16T12:56:45;14.00;13.50;10.75
55304;PMS7003;65692;51.378;19.824;2024-02-16T12:59:12;9.75;8.25;7.00
55304;PMS7003;65692;51.378;19.824;2024-02-16T13:01:39;9.75;9.50;8.00
55304;PMS7003;65692;51.378;19.824;2024-02-16T13:04:06;13.75;10.75;8.00
55304;PMS7003;65692;51.378;19.824;2024-02-16T13:06:33;10.25;10.00;9.00
55304;PMS7003;65692;51.378;19.824;2024-02-16T13:09:00;9.50;9.50;7.25
55304;PMS7003;65692;51.378;19.824;2024-02-16T13:11:28;14.25;12.75;10.00
55304;PMS7003;65692;51.378;19.824;2024-02-16T13:13:55;15.25;12.25;9.50
55304;PMS7003;65692;51.378;19.824;2024-02-16T13:16:22;13.00;6.50;6.50
55304;PMS7003;65692;51.378;19.824;2024-02-16T13:18:48;16.50;13.50;9.50
55304;PMS7003;65692;51.378;19.824;2024-02-16T13:21:15;13.75;12.00;8.50
55304;PMS7003;65692;51.378;19.824;2024-02-16T13:23:42;10.00;9.50;7.00
55304;PMS7003;65692;51.378;19.824;2024-02-16T13:26:09;9.50;9.50;7.75
55304;PMS7003;65692;51.378;19.824;2024-02-16T13:28:36;10.25;9.00;6.25
55304;PMS7003;65692;51.378;19.824;2024-02-16T13:31:03;14.25;12.00;9.00
55304;PMS7003;65692;51.378;19.824;2024-02-16T13:33:29;12.50;11.50;7.75
55304;PMS7003;65692;51.378;19.824;2024-02-16T13:35:56;7.00;5.50;4.50
55304;PMS7003;65692;51.378;19.824;2024-02-16T13:38:23;9.00;7.00;6.00
55304;PMS7003;65692;51.378;19.824;2024-02-16T13:40:50;8.25;6.75;5.50
55304;PMS7003;65692;51.378;19.824;2024-02-16T13:43:17;8.00;7.50;6.00
55304;PMS7003;65692;51.378;19.824;2024-02-16T13:45:51;15.25;11.75;8.50
55304;PMS7003;65692;51.378;19.824;2024-02-16T13:48:18;13.00;10.25;8.00
55304;PMS7003;65692;51.378;19.824;2024-02-16T13:50:46;15.75;12.25;9.25
55304;PMS7003;65692;51.378;19.824;2024-02-16T13:53:13;14.75;12.75;9.50
55304;PMS7003;65692;51.378;19.824;2024-02-16T13:55:46;12.75;10.00;7.75
55304;PMS7003;65692;51.378;19.824;2024-02-16T13:58:13;16.00;11.25;9.25
55304;PMS7003;65692;51.378;19.824;2024-02-16T14:00:39;18.75;14.50;7.25
55304;PMS7003;65692;51.378;19.824;2024-02-16T14:03:08;21.25;15.00;11.25
55304;PMS7003;65692;51.378;19.824;2024-02-16T14:05:36;14.50;11.25;7.75
55304;PMS7003;65692;51.378;19.824;2024-02-16T14:08:03;11.75;10.75;7.75
55304;PMS7003;65692;51.378;19.824;2024-02-16T14:10:34;14.50;13.50;10.25
55304;PMS7003;65692;51.378;19.824;2024-02-16T14:13:01;16.00;15.00;13.75
55304;PMS7003;65692;51.378;19.824;2024-02-16T14:15:28;17.50;14.75;11.75
55304;PMS7003;65692;51.378;19.824;2024-02-16T14:17:58;24.75;19.50;15.75
55304;PMS7003;65692;51.378;19.824;2024-02-16T14:20:24;21.50;17.25;14.25
55304;PMS7003;65692;51.378;19.824;2024-02-16T14:22:51;17.75;15.75;12.25
55304;PMS7003;65692;51.378;19.824;2024-02-16T14:25:18;6.00;3.00;1.00
55304;PMS7003;65692;51.378;19.824;2024-02-16T14:27:46;14.50;13.00;10.00
55304;PMS7003;65692;51.378;19.824;2024-02-16T14:30:14;15.25;15.25;11.00
55304;PMS7003;65692;51.378;19.824;2024-02-16T14:32:40;14.75;13.75;11.25
55304;PMS7003;65692;51.378;19.824;2024-02-16T14:35:08;18.75;18.00;13.75
55304;PMS7003;65692;51.378;19.824;2024-02-16T14:37:36;25.00;20.50;14.50
55304;PMS7003;65692;51.378;19.824;2024-02-16T14:40:02;15.25;12.50;10.00
55304;PMS7003;65692;51.378;19.824;2024-02-16T14:42:31;14.25;11.00;9.00
55304;PMS7003;65692;51.378;19.824;2024-02-16T14:44:58;15.50;11.75;9.25
55304;PMS7003;65692;51.378;19.824;2024-02-16T14:47:25;19.50;16.00;11.00
55304;PMS7003;65692;51.378;19.824;2024-02-16T14:49:52;39.75;29.75;21.50
55304;PMS7003;65692;51.378;19.824;2024-02-16T14:52:18;29.00;21.50;18.00
55304;PMS7003;65692;51.378;19.824;2024-02-16T14:54:45;51.25;35.25;15.25
55304;PMS7003;65692;51.378;19.824;2024-02-16T14:57:12;21.00;18.75;14.75
55304;PMS7003;65692;51.378;19.824;2024-02-16T14:59:39;16.50;14.50;11.50
55304;PMS7003;65692;51.378;19.824;2024-02-16T15:02:06;15.00;13.25;10.50
55304;PMS7003;65692;51.378;19.824;2024-02-16T15:04:33;28.50;20.50;11.75
55304;PMS7003;65692;51.378;19.824;2024-02-16T15:07:00;18.25;16.75;12.25
55304;PMS7003;65692;51.378;19.824;2024-02-16T15:09:27;18.00;16.75;13.00
55304;PMS7003;65692;51.378;19.824;2024-02-16T15:11:55;20.75;17.25;13.00
55304;PMS7003;65692;51.378;19.824;2024-02-16T15:14:22;17.50;15.50;13.00
55304;PMS7003;65692;51.378;19.824;2024-02-16T15:16:49;15.00;15.00;11.50
55304;PMS7003;65692;51.378;19.824;2024-02-16T15:19:18;19.25;13.50;10.50
55304;PMS7003;65692;51.378;19.824;2024-02-16T15:21:45;15.50;14.50;10.25
55304;PMS7003;65692;51.378;19.824;2024-02-16T15:24:13;22.25;15.50;10.50
55304;PMS7003;65692;51.378;19.824;2024-02-16T15:26:40;18.00;16.25;12.00
55304;PMS7003;65692;51.378;19.824;2024-02-16T15:29:07;23.75;16.25;12.50
55304;PMS7003;65692;51.378;19.824;2024-02-16T15:31:33;24.00;16.75;12.00
55304;PMS7003;65692;51.378;19.824;2024-02-16T15:34:00;23.00;20.00;10.25
55304;PMS7003;65692;51.378;19.824;2024-02-16T15:36:27;21.75;20.50;13.00
55304;PMS7003;65692;51.378;19.824;2024-02-16T15:38:54;20.50;17.75;11.75
55304;PMS7003;65692;51.378;19.824;2024-02-16T15:41:21;25.25;22.75;15.75
55304;PMS7003;65692;51.378;19.824;2024-02-16T15:43:49;33.25;26.25;17.00
55304;PMS7003;65692;51.378;19.824;2024-02-16T15:46:16;25.00;22.75;18.50
55304;PMS7003;65692;51.378;19.824;2024-02-16T15:48:43;25.25;19.75;14.75
55304;PMS7003;65692;51.378;19.824;2024-02-16T15:51:13;29.50;26.25;20.00
55304;PMS7003;65692;51.378;19.824;2024-02-16T15:53:39;36.75;27.50;19.00
55304;PMS7003;65692;51.378;19.824;2024-02-16T15:56:07;26.00;21.75;15.75
55304;PMS7003;65692;51.378;19.824;2024-02-16T15:58:33;30.25;26.00;18.50
55304;PMS7003;65692;51.378;19.824;2024-02-16T16:01:00;36.75;27.75;20.25
55304;PMS7003;65692;51.378;19.824;2024-02-16T16:03:27;22.75;20.25;16.25
55304;PMS7003;65692;51.378;19.824;2024-02-16T16:05:54;34.25;28.25;20.00
55304;PMS7003;65692;51.378;19.824;2024-02-16T16:08:21;29.25;27.75;19.00
55304;PMS7003;65692;51.378;19.824;2024-02-16T16:10:48;36.25;29.25;20.00
55304;PMS7003;65692;51.378;19.824;2024-02-16T16:13:14;31.25;29.25;21.25
55304;PMS7003;65692;51.378;19.824;2024-02-16T16:15:42;32.75;26.50;20.50
55304;PMS7003;65692;51.378;19.824;2024-02-16T16:18:11;41.50;34.00;22.25
55304;PMS7003;65692;51.378;19.824;2024-02-16T16:20:41;34.00;32.75;23.75
55304;PMS7003;65692;51.378;19.824;2024-02-16T16:23:08;43.75;34.00;20.50
55304;PMS7003;65692;51.378;19.824;2024-02-16T16:25:35;30.00;30.00;21.75
55304;PMS7003;65692;51.378;19.824;2024-02-16T16:28:01;36.25;32.50;22.75
55304;PMS7003;65692;51.378;19.824;2024-02-16T16:30:28;34.50;24.50;13.25
55304;PMS7003;65692;51.378;19.824;2024-02-16T16:32:55;35.00;25.25;18.00
55304;PMS7003;65692;51.378;19.824;2024-02-16T16:35:22;39.25;35.00;26.25
55304;PMS7003;65692;51.378;19.824;2024-02-16T16:37:49;38.00;32.75;22.25
55304;PMS7003;65692;51.378;19.824;2024-02-16T16:40:15;48.00;40.67;27.00
55304;PMS7003;65692;51.378;19.824;2024-02-16T16:42:45;47.00;34.25;25.50
55304;PMS7003;65692;51.378;19.824;2024-02-16T16:45:11;52.00;40.00;26.33
55304;PMS7003;65692;51.378;19.824;2024-02-16T16:47:39;55.33;43.67;28.00
55304;PMS7003;65692;51.378;19.824;2024-02-16T16:50:06;53.33;45.00;28.33
55304;PMS7003;65692;51.378;19.824;2024-02-16T16:52:34;55.00;40.33;27.67
55304;PMS7003;65692;51.378;19.824;2024-02-16T16:55:01;55.00;41.33;27.33
55304;PMS7003;65692;51.378;19.824;2024-02-16T16:57:27;60.00;40.67;26.67
55304;PMS7003;65692;51.378;19.824;2024-02-16T16:59:54;51.00;40.00;28.00
55304;PMS7003;65692;51.378;19.824;2024-02-16T17:02:23;61.75;45.75;29.25
55304;PMS7003;65692;51.378;19.824;2024-02-16T17:04:51;60.00;46.25;29.00
55304;PMS7003;65692;51.378;19.824;2024-02-16T17:07:18;56.75;45.50;31.00
55304;PMS7003;65692;51.378;19.824;2024-02-16T17:09:45;52.75;42.50;28.75
55304;PMS7003;65692;51.378;19.824;2024-02-16T17:12:12;58.33;47.33;29.00
55304;PMS7003;65692;51.378;19.824;2024-02-16T17:14:39;32.67;25.00;11.33
55304;PMS7003;65692;51.378;19.824;2024-02-16T17:17:06;55.33;42.00;28.00
55304;PMS7003;65692;51.378;19.824;2024-02-16T17:19:33;45.25;38.50;26.50
55304;PMS7003;65692;51.378;19.824;2024-02-16T17:22:00;63.00;49.50;32.50
55304;PMS7003;65692;51.378;19.824;2024-02-16T17:24:29;59.00;46.00;28.33
55304;PMS7003;65692;51.378;19.824;2024-02-16T17:26:57;55.75;45.50;29.00
55304;PMS7003;65692;51.378;19.824;2024-02-16T17:29:24;65.25;47.50;31.50
55304;PMS7003;65692;51.378;19.824;2024-02-16T17:31:51;62.00;47.75;30.75
55304;PMS7003;65692;51.378;19.824;2024-02-16T17:34:21;67.25;50.25;33.75
55304;PMS7003;65692;51.378;19.824;2024-02-16T17:36:48;67.25;51.00;34.00
55304;PMS7003;65692;51.378;19.824;2024-02-16T17:39:18;72.50;53.75;34.25
55304;PMS7003;65692;51.378;19.824;2024-02-16T17:41:48;62.75;49.25;32.50
55304;PMS7003;65692;51.378;19.824;2024-02-16T17:44:15;61.25;50.50;34.50
55304;PMS7003;65692;51.378;19.824;2024-02-16T17:46:41;69.00;46.50;32.25
55304;PMS7003;65692;51.378;19.824;2024-02-16T17:49:08;76.00;56.00;34.50
55304;PMS7003;65692;51.378;19.824;2024-02-16T17:51:34;69.25;53.00;34.00
55304;PMS7003;65692;51.378;19.824;2024-02-16T17:54:01;59.25;47.50;33.00
55304;PMS7003;65692;51.378;19.824;2024-02-16T17:56:27;71.25;54.50;34.75
55304;PMS7003;65692;51.378;19.824;2024-02-16T17:58:54;63.00;49.75;34.00
55304;PMS7003;65692;51.378;19.824;2024-02-16T18:01:21;59.50;44.00;31.00
55304;PMS7003;65692;51.378;19.824;2024-02-16T18:03:47;64.50;45.75;29.25
55304;PMS7003;65692;51.378;19.824;2024-02-16T18:06:14;61.25;43.50;28.00
55304;PMS7003;65692;51.378;19.824;2024-02-16T18:08:41;53.50;41.00;29.00
55304;PMS7003;65692;51.378;19.824;2024-02-16T18:11:08;55.00;42.75;30.25
55304;PMS7003;65692;51.378;19.824;2024-02-16T18:13:35;52.75;41.50;29.00
55304;PMS7003;65692;51.378;19.824;2024-02-16T18:16:01;65.25;45.75;28.50
55304;PMS7003;65692;51.378;19.824;2024-02-16T18:18:30;30.75;25.00;10.75
55304;PMS7003;65692;51.378;19.824;2024-02-16T18:20:56;53.25;43.50;29.75
55304;PMS7003;65692;51.378;19.824;2024-02-16T18:23:23;64.00;44.50;30.00
55304;PMS7003;65692;51.378;19.824;2024-02-16T18:25:52;58.25;44.50;29.50
55304;PMS7003;65692;51.378;19.824;2024-02-16T18:28:19;54.50;45.00;30.75
55304;PMS7003;65692;51.378;19.824;2024-02-16T18:30:55;58.25;45.00;30.75
55304;PMS7003;65692;51.378;19.824;2024-02-16T18:33:21;63.25;46.75;30.75
55304;PMS7003;65692;51.378;19.824;2024-02-16T18:35:49;51.00;43.50;30.00
55304;PMS7003;65692;51.378;19.824;2024-02-16T18:38:15;58.75;46.25;28.75
55304;PMS7003;65692;51.378;19.824;2024-02-16T18:40:42;60.50;45.50;30.75
55304;PMS7003;65692;51.378;19.824;2024-02-16T18:43:09;59.00;43.50;29.00
55304;PMS7003;65692;51.378;19.824;2024-02-16T18:45:35;56.50;44.00;30.00
55304;PMS7003;65692;51.378;19.824;2024-02-16T18:48:02;54.25;45.75;31.00
55304;PMS7003;65692;51.378;19.824;2024-02-16T18:50:29;61.75;46.00;30.50
55304;PMS7003;65692;51.378;19.824;2024-02-16T18:52:56;50.50;41.25;29.50
55304;PMS7003;65692;51.378;19.824;2024-02-16T18:55:23;59.00;47.50;30.25
55304;PMS7003;65692;51.378;19.824;2024-02-16T18:57:50;58.25;43.00;29.75
55304;PMS7003;65692;51.378;19.824;2024-02-16T19:00:19;51.75;42.25;29.75
55304;PMS7003;65692;51.378;19.824;2024-02-16T19:02:46;40.75;34.00;24.75
55304;PMS7003;65692;51.378;19.824;2024-02-16T19:05:13;48.25;40.00;29.00
55304;PMS7003;65692;51.378;19.824;2024-02-16T19:07:40;59.50;45.50;30.00
55304;PMS7003;65692;51.378;19.824;2024-02-16T19:10:07;56.50;45.25;31.00
55304;PMS7003;65692;51.378;19.824;2024-02-16T19:12:33;60.25;47.75;31.75
55304;PMS7003;65692;51.378;19.824;2024-02-16T19:15:01;65.00;51.00;35.75
55304;PMS7003;65692;51.378;19.824;2024-02-16T19:17:33;63.75;47.75;31.50
55304;PMS7003;65692;51.378;19.824;2024-02-16T19:19:59;59.00;45.25;32.00
55304;PMS7003;65692;51.378;19.824;2024-02-16T19:22:26;56.75;44.25;30.25
55304;PMS7003;65692;51.378;19.824;2024-02-16T19:24:53;54.75;42.75;29.00
55304;PMS7003;65692;51.378;19.824;2024-02-16T19:27:19;54.25;46.50;31.25
55304;PMS7003;65692;51.378;19.824;2024-02-16T19:29:47;63.25;46.75;31.50
55304;PMS7003;65692;51.378;19.824;2024-02-16T19:32:15;65.25;50.25;34.00
55304;PMS7003;65692;51.378;19.824;2024-02-16T19:34:42;62.75;47.00;32.25
55304;PMS7003;65692;51.378;19.824;2024-02-16T19:37:09;63.00;45.75;31.00
55304;PMS7003;65692;51.378;19.824;2024-02-16T19:39:35;62.25;47.50;32.00
55304;PMS7003;65692;51.378;19.824;2024-02-16T19:42:02;62.50;50.00;33.00
55304;PMS7003;65692;51.378;19.824;2024-02-16T19:44:30;57.75;48.00;32.00
55304;PMS7003;65692;51.378;19.824;2024-02-16T19:47:00;65.75;47.50;32.50
55304;PMS7003;65692;51.378;19.824;2024-02-16T19:49:26;63.00;47.50;34.00
55304;PMS7003;65692;51.378;19.824;2024-02-16T19:51:54;63.25;47.50;34.75
55304;PMS7003;65692;51.378;19.824;2024-02-16T19:54:20;69.75;54.25;37.00
55304;PMS7003;65692;51.378;19.824;2024-02-16T19:56:47;69.50;51.00;35.00
55304;PMS7003;65692;51.378;19.824;2024-02-16T19:59:14;68.25;53.25;37.25
55304;PMS7003;65692;51.378;19.824;2024-02-16T20:01:40;68.50;54.75;37.00
55304;PMS7003;65692;51.378;19.824;2024-02-16T20:04:07;91.50;66.25;42.00
55304;PMS7003;65692;51.378;19.824;2024-02-16T20:06:34;78.75;59.25;40.25
55304;PMS7003;65692;51.378;19.824;2024-02-16T20:09:01;66.75;48.00;34.50
55304;PMS7003;65692;51.378;19.824;2024-02-16T20:11:29;72.25;55.75;37.75
55304;PMS7003;65692;51.378;19.824;2024-02-16T20:13:55;67.25;52.50;34.50
55304;PMS7003;65692;51.378;19.824;2024-02-16T20:16:22;69.00;52.00;34.00
55304;PMS7003;65692;51.378;19.824;2024-02-16T20:18:49;63.75;46.75;31.75
55304;PMS7003;65692;51.378;19.824;2024-02-16T20:21:18;55.50;48.00;32.00
55304;PMS7003;65692;51.378;19.824;2024-02-16T20:23:45;72.25;53.50;36.00
55304;PMS7003;65692;51.378;19.824;2024-02-16T20:26:11;69.00;50.75;34.50
55304;PMS7003;65692;51.378;19.824;2024-02-16T20:28:38;64.00;51.00;34.25
55304;PMS7003;65692;51.378;19.824;2024-02-16T20:31:05;62.00;51.50;35.00
55304;PMS7003;65692;51.378;19.824;2024-02-16T20:33:35;72.50;55.00;35.50
55304;PMS7003;65692;51.378;19.824;2024-02-16T20:36:02;72.25;53.25;34.50
55304;PMS7003;65692;51.378;19.824;2024-02-16T20:38:28;65.25;47.25;31.25
55304;PMS7003;65692;51.378;19.824;2024-02-16T20:40:55;67.25;50.75;35.25
55304;PMS7003;65692;51.378;19.824;2024-02-16T20:43:24;71.25;54.00;35.00
55304;PMS7003;65692;51.378;19.824;2024-02-16T20:45:53;67.25;51.50;33.50
55304;PMS7003;65692;51.378;19.824;2024-02-16T20:48:20;86.75;64.50;42.25
55304;PMS7003;65692;51.378;19.824;2024-02-16T20:50:46;82.00;59.50;37.25
55304;PMS7003;65692;51.378;19.824;2024-02-16T20:53:13;84.50;64.25;41.25
55304;PMS7003;65692;51.378;19.824;2024-02-16T20:55:39;79.00;60.25;36.00